Time;durP1;ratioP1;P1;durP2;ratioP2;P2;SDS_P1;SDS_P2;PMS_P1;PMS_P2;Temp;Humidity;BMP_temperature;BMP_pressure;BME280_temperature;BME280_humidity;BME280_pressure;Samples;Min_cycle;Max_cycle;Signal;HPM_P1;HPM_P2
2023/04/29 00:00:16;;;;;;;;;6.00;4.00;;;;;15.13;65.74;101258.44;5097455;27;64539;-71
2023/04/29 00:02:42;;;;;;;;;5.00;5.00;;;;;14.89;66.03;101209.13;5111929;27;45233;-68
2023/04/29 00:05:07;;;;;;;;;4.33;4.33;;;;;15.09;66.13;101259.75;5109108;27;45232;-69
2023/04/29 00:07:33;;;;;;;;;5.00;4.00;;;;;15.00;66.24;101248.16;5102993;27;45339;-69
2023/04/29 00:09:58;;;;;;;;;4.33;4.33;;;;;14.51;66.53;101175.66;5118274;27;46199;-70
2023/04/29 00:12:24;;;;;;;;;9.00;9.00;;;;;14.73;66.79;101206.38;5099036;27;45474;-72
2023/04/29 00:14:50;;;;;;;;;8.67;8.67;;;;;14.45;66.47;101164.75;5106373;27;45414;-69
2023/04/29 00:17:16;;;;;;;;;6.67;5.67;;;;;14.40;66.80;101167.03;5098042;27;45477;-69
2023/04/29 00:19:42;;;;;;;;;4.67;4.67;;;;;14.79;67.33;101234.34;5112544;27;46493;-68
2023/04/29 00:22:08;;;;;;;;;6.00;6.00;;;;;14.05;67.08;101101.97;5114851;27;45490;-69
2023/04/29 00:24:33;;;;;;;;;5.33;5.00;;;;;14.76;67.12;101229.31;5108907;27;45492;-71
2023/04/29 00:26:58;;;;;;;;;4.00;4.00;;;;;14.68;67.08;101216.72;5091215;27;45443;-68
2023/04/29 00:29:24;;;;;;;;;5.67;5.67;;;;;14.83;66.92;101235.72;5107099;27;57231;-70
2023/04/29 00:31:49;;;;;;;;;5.33;5.00;;;;;14.76;67.02;101219.44;5102494;27;45477;-70
2023/04/29 00:34:15;;;;;;;;;5.00;5.00;;;;;14.38;66.71;101164.50;5082000;27;45290;-70
2023/04/29 00:36:40;;;;;;;;;5.33;5.33;;;;;14.70;67.24;101216.56;5098001;27;45432;-69
2023/04/29 00:39:06;;;;;;;;;8.00;8.00;;;;;14.76;67.15;101226.63;5105603;27;52666;-69
2023/04/29 00:41:32;;;;;;;;;5.00;4.00;;;;;14.78;67.35;101233.50;5097047;27;45489;-70
2023/04/29 00:43:57;;;;;;;;;5.00;5.00;;;;;14.74;67.22;101221.44;5097414;27;45285;-69
2023/04/29 00:46:23;;;;;;;;;4.67;4.67;;;;;14.48;67.19;101175.97;5114961;27;45361;-68
2023/04/29 00:48:48;;;;;;;;;4.67;4.67;;;;;14.72;67.52;101226.09;5117855;27;46665;-70
2023/04/29 00:51:16;;;;;;;;;6.33;5.67;;;;;14.55;67.76;101205.59;5109681;27;45481;-71
2023/04/29 00:53:42;;;;;;;;;7.67;6.33;;;;;14.63;67.65;101221.72;5106052;27;45321;-69
2023/04/29 00:56:07;;;;;;;;;7.00;6.33;;;;;14.61;67.78;101223.69;5097480;27;45481;-68
2023/04/29 00:58:34;;;;;;;;;5.33;5.33;;;;;14.52;67.72;101209.44;5107224;27;46553;-69
2023/04/29 01:01:00;;;;;;;;;5.00;3.67;;;;;14.62;67.77;101212.03;5104535;27;45262;-70
2023/04/29 01:03:27;;;;;;;;;5.00;5.00;;;;;14.23;67.68;101160.75;5108422;27;45439;-70
2023/04/29 01:06:02;;;;;;;;;7.00;7.00;;;;;13.84;67.48;101098.84;5106060;27;45316;-69
2023/04/29 01:08:36;;;;;;;;;6.33;5.00;;;;;14.58;67.66;101224.00;5097275;27;46385;-69
2023/04/29 01:11:10;;;;;;;;;8.67;7.67;;;;;14.19;68.06;101159.38;5096762;27;45384;-68
2023/04/29 01:13:44;;;;;;;;;9.00;8.00;;;;;14.51;67.93;101220.31;5098537;27;45423;-71
2023/04/29 01:16:19;;;;;;;;;6.33;6.33;;;;;14.51;67.99;101233.69;5117329;27;45469;-68
2023/04/29 01:18:53;;;;;;;;;6.00;6.00;;;;;14.55;67.62;101227.84;5105390;27;45295;-68
2023/04/29 01:21:19;;;;;;;;;4.33;4.00;;;;;14.09;67.58;101151.47;5079125;27;45495;-69
2023/04/29 01:23:44;;;;;;;;;9.00;8.00;;;;;14.38;67.63;101195.75;5095458;27;45478;-70
2023/04/29 01:26:10;;;;;;;;;6.33;6.33;;;;;14.50;68.11;101221.31;5096842;27;45485;-70
2023/04/29 01:29:00;;;;;;;;;5.67;5.67;;;;;14.47;67.97;101224.28;5088029;27;47620;-69
2023/04/29 01:31:37;;;;;;;;;8.00;7.33;;;;;14.47;67.93;101226.97;5082144;27;45341;-70
2023/04/29 01:34:17;;;;;;;;;6.00;6.00;;;;;14.34;67.85;101211.28;5109922;27;45386;-69
2023/04/29 01:37:06;;;;;;;;;10.00;7.67;;;;;14.49;67.63;101236.50;5099988;27;45573;-68
2023/04/29 01:40:01;;;;;;;;;7.33;7.33;;;;;14.24;67.81;101187.34;5107765;27;46570;-68
2023/04/29 01:42:38;;;;;;;;;6.33;6.33;;;;;14.49;67.76;101222.31;5082523;27;45524;-69
2023/04/29 01:45:07;;;;;;;;;8.33;8.33;;;;;14.30;67.53;101194.72;5108220;27;45453;-68
2023/04/29 01:47:32;;;;;;;;;8.00;7.00;;;;;14.28;67.78;101180.69;5108480;27;46705;-75
2023/04/29 01:49:58;;;;;;;;;6.67;6.67;;;;;14.52;67.95;101213.94;5114459;27;46512;-69
2023/04/29 01:52:23;;;;;;;;;7.33;6.33;;;;;14.48;67.78;101205.41;5101332;27;45460;-69
2023/04/29 01:54:49;;;;;;;;;6.33;6.33;;;;;14.43;67.88;101215.75;5100719;27;45466;-68
2023/04/29 01:57:15;;;;;;;;;6.67;6.67;;;;;14.34;67.98;101221.16;5106634;27;45405;-70
2023/04/29 01:59:41;;;;;;;;;5.00;5.00;;;;;13.52;68.25;101084.22;5095421;27;47935;-69
2023/04/29 02:02:06;;;;;;;;;6.67;5.00;;;;;13.58;68.00;101096.13;5108212;27;45453;-69
2023/04/29 02:04:33;;;;;;;;;8.67;7.00;;;;;14.35;67.94;101223.66;5100322;27;45307;-70
2023/04/29 02:06:58;;;;;;;;;8.00;8.00;;;;;14.14;68.44;101194.59;5115063;27;45490;-69
2023/04/29 02:09:24;;;;;;;;;9.67;8.33;;;;;14.29;68.48;101217.13;5111368;27;46679;-72
2023/04/29 02:11:49;;;;;;;;;8.33;8.33;;;;;14.30;68.72;101217.97;5102783;27;46219;-71
2023/04/29 02:14:14;;;;;;;;;8.67;8.67;;;;;14.22;68.84;101208.06;5120004;27;45419;-69
2023/04/29 02:16:44;;;;;;;;;10.00;8.00;;;;;14.20;68.98;101203.84;5104899;27;45239;-70
2023/04/29 02:19:09;;;;;;;;;9.67;9.67;;;;;14.05;68.67;101182.19;5089926;27;47268;-69
2023/04/29 02:21:34;;;;;;;;;9.67;8.67;;;;;14.23;68.88;101220.44;5099480;27;45644;-70
2023/04/29 02:24:00;;;;;;;;;7.00;6.33;;;;;14.22;68.94;101218.75;5090504;27;45403;-70
2023/04/29 02:26:25;;;;;;;;;7.67;7.67;;;;;13.94;68.99;101187.78;5107953;27;45569;-68
2023/04/29 02:28:51;;;;;;;;;12.00;8.00;;;;;14.12;68.84;101220.66;5107355;27;62291;-70
2023/04/29 02:31:16;;;;;;;;;7.67;7.67;;;;;14.08;69.21;101232.66;5107730;27;45528;-69
2023/04/29 02:33:42;;;;;;;;;9.67;9.67;;;;;13.91;69.56;101220.16;5107308;27;45726;-68
2023/04/29 02:36:07;;;;;;;;;10.33;8.00;;;;;13.72;69.62;101198.94;5119466;27;45408;-71
2023/04/29 02:38:32;;;;;;;;;9.67;8.67;;;;;13.78;69.50;101203.66;5105006;27;46349;-69
2023/04/29 02:40:58;;;;;;;;;10.33;10.33;;;;;13.67;69.95;101170.03;5088904;27;45634;-71
2023/04/29 02:43:29;;;;;;;;;11.67;10.67;;;;;13.98;69.72;101240.75;5099299;27;45461;-72
2023/04/29 02:45:55;;;;;;;;;12.00;9.33;;;;;13.64;69.71;101173.84;5115556;27;45395;-70
2023/04/29 02:48:20;;;;;;;;;9.67;9.67;;;;;13.93;69.62;101235.03;5107556;27;45482;-69
2023/04/29 02:50:45;;;;;;;;;7.67;7.67;;;;;13.79;69.78;101194.66;5098705;27;45499;-68
2023/04/29 02:53:10;;;;;;;;;9.33;9.33;;;;;13.80;69.51;101196.31;5115444;27;45453;-68
2023/04/29 02:55:36;;;;;;;;;10.67;9.67;;;;;13.92;69.89;101235.19;5107533;27;45597;-68
2023/04/29 02:58:02;;;;;;;;;4.33;4.33;;;;;13.51;69.70;101160.00;5107135;27;46104;-68
2023/04/29 03:00:28;;;;;;;;;10.33;10.00;;;;;13.92;69.63;101229.84;5112493;27;45399;-67
2023/04/29 03:02:53;;;;;;;;;7.67;6.67;;;;;13.88;69.67;101218.63;5119342;27;45306;-68
2023/04/29 03:05:18;;;;;;;;;10.00;10.00;;;;;13.88;69.80;101231.16;5106257;27;45382;-68
2023/04/29 03:07:43;;;;;;;;;11.00;9.67;;;;;13.89;69.83;101227.50;5107514;27;45882;-69
2023/04/29 03:10:09;;;;;;;;;8.00;8.00;;;;;13.89;69.72;101230.16;5098368;27;45643;-68
2023/04/29 03:12:34;;;;;;;;;9.67;8.67;;;;;13.43;69.63;101145.75;5107750;27;45444;-70
2023/04/29 03:14:59;;;;;;;;;9.33;9.33;;;;;13.86;69.99;101223.31;5099442;27;45476;-70
2023/04/29 03:17:25;;;;;;;;;10.00;9.00;;;;;13.81;70.03;101238.94;5089557;27;47287;-69
2023/04/29 03:19:52;;;;;;;;;6.33;6.33;;;;;13.79;70.19;101240.09;5092293;27;45631;-70
2023/04/29 03:22:17;;;;;;;;;9.33;9.33;;;;;13.55;70.29;101204.13;5096529;27;45264;-70
2023/04/29 03:24:43;;;;;;;;;9.00;9.00;;;;;13.58;70.56;101214.50;5098578;27;45388;-69
2023/04/29 03:27:08;;;;;;;;;11.00;11.00;;;;;13.78;70.41;101249.09;5106430;27;46487;-68
2023/04/29 03:29:33;;;;;;;;;10.33;10.33;;;;;13.70;70.37;101252.53;5102323;27;63439;-69
2023/04/29 03:31:59;;;;;;;;;10.33;10.33;;;;;13.55;70.63;101225.50;5110451;27;45399;-69
2023/04/29 03:34:24;;;;;;;;;11.33;11.33;;;;;13.68;70.34;101252.69;5098893;27;45175;-71
2023/04/29 03:36:50;;;;;;;;;8.33;8.33;;;;;13.70;70.47;101256.06;5098406;27;45710;-70
2023/04/29 03:39:16;;;;;;;;;10.00;10.00;;;;;13.40;70.62;101213.66;5099302;27;45466;-69
2023/04/29 03:41:41;;;;;;;;;8.67;8.67;;;;;13.73;70.50;101254.06;5105067;27;45324;-68
2023/04/29 03:44:07;;;;;;;;;10.00;10.00;;;;;13.64;70.87;101237.13;5088215;27;45574;-69
2023/04/29 03:46:32;;;;;;;;;10.33;10.33;;;;;13.55;70.84;101225.50;5101631;27;45851;-68
2023/04/29 03:48:57;;;;;;;;;13.33;12.33;;;;;13.72;70.31;101241.69;5099733;27;45692;-70
2023/04/29 03:51:24;;;;;;;;;12.33;9.33;;;;;13.86;70.04;101249.19;5118121;27;45824;-69
2023/04/29 03:53:52;;;;;;;;;14.67;13.33;;;;;13.73;70.41;101238.03;5104999;27;45481;-70
2023/04/29 03:56:17;;;;;;;;;13.33;12.67;;;;;13.55;70.97;101252.22;5097402;27;45784;-67
2023/04/29 03:58:42;;;;;;;;;18.67;16.67;;;;;13.63;71.17;101257.66;5097769;27;45237;-70
2023/04/29 04:01:08;;;;;;;;;15.33;12.67;;;;;13.63;70.88;101263.00;5106072;27;45680;-68
2023/04/29 04:03:33;;;;;;;;;17.67;17.33;;;;;13.19;71.65;101205.06;5109646;27;45228;-67
2023/04/29 04:05:58;;;;;;;;;26.00;25.00;;;;;13.34;71.64;101241.81;5117925;27;45507;-69
2023/04/29 04:08:24;;;;;;;;;20.00;19.00;;;;;13.28;72.97;101274.44;5107945;27;45259;-69
2023/04/29 04:10:49;;;;;;;;;22.00;19.00;;;;;13.27;72.60;101261.25;5102984;27;45580;-67
2023/04/29 04:13:14;;;;;;;;;26.50;24.50;;;;;13.16;72.50;101264.06;5109717;27;45484;-70
2023/04/29 04:15:41;;;;;;;;;33.33;27.67;;;;;12.78;73.23;101228.56;5108492;27;46781;-68
2023/04/29 04:18:06;;;;;;;;;32.67;30.00;;;;;12.78;73.81;101253.41;5109541;27;45492;-69
2023/04/29 04:20:32;;;;;;;;;27.00;25.33;;;;;12.99;73.95;101277.22;5115326;27;45597;-69
2023/04/29 04:22:57;;;;;;;;;29.00;25.00;;;;;13.03;73.70;101289.28;5097929;27;45322;-68
2023/04/29 04:25:22;;;;;;;;;24.00;23.00;;;;;13.03;74.02;101288.47;5079331;27;47596;-70
2023/04/29 04:27:48;;;;;;;;;28.33;27.00;;;;;12.72;73.34;101232.66;5113091;27;45574;-70
2023/04/29 04:30:13;;;;;;;;;31.00;26.00;;;;;12.90;74.06;101282.59;5095365;27;45421;-70
2023/04/29 04:32:39;;;;;;;;;25.33;24.67;;;;;12.85;74.45;101291.03;5107020;27;45466;-68
2023/04/29 04:35:06;;;;;;;;;29.33;26.33;;;;;12.66;74.70;101259.09;5102830;27;45677;-68
2023/04/29 04:37:31;;;;;;;;;26.33;23.67;;;;;12.22;74.51;101188.59;5109192;27;45542;-70
2023/04/29 04:39:56;;;;;;;;;26.00;24.00;;;;;12.58;74.34;101245.59;5104291;27;45380;-70
2023/04/29 04:42:22;;;;;;;;;28.33;24.00;;;;;12.74;75.13;101296.53;5106588;27;46036;-70
2023/04/29 04:44:47;;;;;;;;;30.67;27.33;;;;;12.73;75.30;101308.19;5113943;27;46473;-69
2023/04/29 04:47:12;;;;;;;;;40.33;32.67;;;;;12.08;74.48;101173.91;5097001;27;45209;-71
2023/04/29 04:49:38;;;;;;;;;38.00;34.00;;;;;12.86;74.34;101292.72;5079360;27;45615;-69
2023/04/29 04:52:03;;;;;;;;;28.33;25.00;;;;;12.77;74.36;101273.06;5078959;27;45249;-70
2023/04/29 04:54:29;;;;;;;;;20.33;20.33;;;;;12.76;74.73;101313.25;5105526;27;46242;-70
2023/04/29 04:56:54;;;;;;;;;22.67;18.67;;;;;12.47;74.84;101255.47;5108221;27;45232;-69
2023/04/29 04:59:19;;;;;;;;;24.67;24.67;;;;;12.84;74.95;101315.22;5110199;27;45327;-69
2023/04/29 05:01:45;;;;;;;;;23.00;23.00;;;;;12.90;74.46;101326.13;5104980;27;50971;-69
2023/04/29 05:04:10;;;;;;;;;22.00;21.00;;;;;12.88;74.82;101327.28;5111167;27;46363;-68
2023/04/29 05:06:36;;;;;;;;;22.67;22.67;;;;;12.64;75.69;101330.41;5107973;27;45407;-68
2023/04/29 05:09:02;;;;;;;;;26.67;23.67;;;;;12.51;75.89;101321.88;5098881;27;45453;-69
2023/04/29 05:11:27;;;;;;;;;23.67;23.67;;;;;12.41;76.75;101329.84;5105819;27;45379;-68
2023/04/29 05:13:52;;;;;;;;;20.67;19.00;;;;;11.80;76.70;101240.38;5113327;27;45741;-71
2023/04/29 05:16:18;;;;;;;;;29.00;24.33;;;;;12.29;76.94;101331.84;5096903;27;45363;-67
2023/04/29 05:18:44;;;;;;;;;26.67;26.67;;;;;12.16;76.47;101301.94;5098204;27;45359;-69
2023/04/29 05:21:10;;;;;;;;;27.00;24.33;;;;;12.41;76.19;101325.41;5118194;27;45353;-71
2023/04/29 05:23:36;;;;;;;;;27.00;25.67;;;;;12.21;76.48;101281.03;5089920;27;48084;-75
2023/04/29 05:26:01;;;;;;;;;25.67;21.67;;;;;12.67;76.05;101362.97;5109081;27;45457;-69
2023/04/29 05:28:26;;;;;;;;;22.33;20.33;;;;;11.84;76.04;101224.97;5103530;27;45261;-70
2023/04/29 05:30:52;;;;;;;;;30.00;28.00;;;;;12.47;76.07;101346.16;5109211;27;45252;-69
2023/04/29 05:33:18;;;;;;;;;24.67;23.33;;;;;12.67;75.76;101370.97;5108828;27;46457;-68
2023/04/29 05:35:43;;;;;;;;;24.33;22.33;;;;;12.70;75.33;101368.03;5100249;27;45352;-70
2023/04/29 05:38:09;;;;;;;;;29.33;26.33;;;;;12.75;75.72;101371.09;5119226;27;45647;-68
2023/04/29 05:40:35;;;;;;;;;30.33;27.33;;;;;12.16;75.83;101277.97;5104179;27;45482;-68
2023/04/29 05:43:00;;;;;;;;;28.00;27.00;;;;;12.79;75.52;101372.50;5099413;27;56849;-70
2023/04/29 05:45:25;;;;;;;;;23.00;22.00;;;;;12.72;75.08;101367.88;5100465;27;45507;-70
2023/04/29 05:47:51;;;;;;;;;26.00;26.00;;;;;12.85;74.79;101389.78;5099901;27;45375;-67
2023/04/29 05:50:16;;;;;;;;;29.33;28.33;;;;;12.67;75.46;101357.66;5099867;27;45478;-69
2023/04/29 05:52:42;;;;;;;;;25.67;25.67;;;;;12.67;75.22;101362.13;5107307;27;48595;-69
2023/04/29 05:55:08;;;;;;;;;23.33;23.00;;;;;12.56;75.25;101354.28;5111650;27;45546;-69
2023/04/29 05:57:33;;;;;;;;;25.33;24.00;;;;;12.71;75.92;101387.53;5110517;27;45473;-69
2023/04/29 05:59:59;;;;;;;;;27.67;26.33;;;;;12.43;75.53;101326.09;5101444;27;45338;-68
2023/04/29 06:02:25;;;;;;;;;24.00;22.00;;;;;12.62;75.11;101349.22;5100076;27;46384;-68
2023/04/29 06:04:50;;;;;;;;;26.00;25.33;;;;;13.04;74.62;101394.25;5108473;27;45342;-71
2023/04/29 06:07:16;;;;;;;;;30.00;29.67;;;;;13.04;74.50;101400.41;5109239;27;45225;-69
2023/04/29 06:09:42;;;;;;;;;28.33;27.00;;;;;12.65;74.17;101332.09;5100325;27;45258;-69
2023/04/29 06:12:08;;;;;;;;;28.67;26.67;;;;;12.79;74.86;101359.16;5108362;27;46535;-69
2023/04/29 06:14:33;;;;;;;;;27.00;26.00;;;;;13.15;74.43;101410.06;5099808;27;45212;-70
2023/04/29 06:16:59;;;;;;;;;26.33;26.00;;;;;12.88;74.44;101364.63;5100548;27;45318;-68
2023/04/29 06:19:24;;;;;;;;;32.33;28.67;;;;;13.10;73.91;101423.84;5111711;27;46386;-68
2023/04/29 06:21:50;;;;;;;;;28.00;24.00;;;;;12.95;74.25;101374.56;5104422;27;45582;-70
2023/04/29 06:24:15;;;;;;;;;26.33;22.00;;;;;13.15;73.76;101393.22;5108748;27;45288;-70
2023/04/29 06:26:40;;;;;;;;;25.33;23.00;;;;;13.27;74.03;101424.13;5100085;27;45331;-69
2023/04/29 06:29:06;;;;;;;;;25.67;23.33;;;;;13.23;73.79;101404.06;5099763;27;45390;-68
2023/04/29 06:31:31;;;;;;;;;28.67;25.33;;;;;13.15;73.90;101401.22;5098986;27;45792;-70
2023/04/29 06:33:56;;;;;;;;;23.33;21.67;;;;;13.32;74.29;101411.19;5100213;27;45324;-72
2023/04/29 06:36:22;;;;;;;;;23.00;21.33;;;;;13.46;73.73;101418.75;5101443;27;45395;-72
2023/04/29 06:38:47;;;;;;;;;21.33;20.33;;;;;13.34;73.51;101399.38;5104648;27;45495;-68
2023/04/29 06:41:12;;;;;;;;;26.00;23.67;;;;;13.56;73.57;101422.19;5108239;27;46723;-71
2023/04/29 06:43:38;;;;;;;;;14.00;14.00;;;;;13.36;73.60;101407.22;5099744;27;45489;-70
2023/04/29 06:46:03;;;;;;;;;20.00;16.67;;;;;13.36;74.17;101407.22;5107576;27;45271;-73
2023/04/29 06:48:28;;;;;;;;;18.33;18.33;;;;;13.26;74.20;101407.28;5101430;27;45517;-70
2023/04/29 06:50:55;;;;;;;;;15.67;14.67;;;;;13.33;74.58;101432.41;5103390;27;45582;-69
2023/04/29 06:53:22;;;;;;;;;22.67;19.33;;;;;13.03;74.82;101388.06;5097916;27;46291;-68
2023/04/29 06:55:48;;;;;;;;;22.67;17.67;;;;;13.37;74.48;101425.78;5089200;27;45462;-70
2023/04/29 06:58:17;;;;;;;;;21.67;20.00;;;;;12.85;74.30;101333.75;5090640;27;45540;-70
2023/04/29 07:00:47;;;;;;;;;20.67;19.33;;;;;13.10;73.62;101365.13;5103886;27;45871;-70
2023/04/29 07:03:13;;;;;;;;;22.67;20.67;;;;;13.49;73.87;101417.59;5101108;27;45558;-71
2023/04/29 07:05:40;;;;;;;;;21.67;20.00;;;;;13.42;73.61;101425.38;5112279;27;45461;-70
2023/04/29 07:08:06;;;;;;;;;24.67;23.67;;;;;13.19;75.04;101437.34;5109039;27;45423;-70
2023/04/29 07:10:31;;;;;;;;;24.67;22.00;;;;;13.24;74.95;101457.31;5117838;27;46640;-69
2023/04/29 07:12:57;;;;;;;;;25.33;23.33;;;;;13.23;74.72;101444.13;5103313;27;46307;-70
2023/04/29 07:15:22;;;;;;;;;27.00;26.33;;;;;13.10;75.29;101458.56;5100338;27;45332;-69
2023/04/29 07:17:47;;;;;;;;;27.00;24.67;;;;;13.08;76.28;101457.88;5113714;27;45430;-68
2023/04/29 07:20:13;;;;;;;;;26.33;25.67;;;;;13.05;76.26;101458.16;5105820;27;64148;-70
2023/04/29 07:22:38;;;;;;;;;23.67;21.33;;;;;13.08;75.36;101439.19;5098511;27;45462;-69
2023/04/29 07:25:04;;;;;;;;;27.00;26.00;;;;;13.23;75.24;101460.13;5097995;27;45699;-70
2023/04/29 07:27:33;;;;;;;;;23.33;23.00;;;;;12.92;75.07;101404.22;5100796;27;45461;-70
2023/04/29 07:30:00;;;;;;;;;36.67;32.00;;;;;12.98;75.28;101413.47;5099774;27;45648;-71
2023/04/29 07:32:25;;;;;;;;;33.67;27.67;;;;;13.14;75.60;101468.97;5081546;27;45550;-70
2023/04/29 07:34:51;;;;;;;;;30.67;27.67;;;;;13.08;75.32;101457.88;5103395;27;45464;-69
2023/04/29 07:37:17;;;;;;;;;27.00;27.00;;;;;13.11;75.75;101475.44;5083247;27;45459;-73
2023/04/29 07:39:42;;;;;;;;;36.00;30.67;;;;;13.07;75.48;101472.22;5099477;27;46359;-70
2023/04/29 07:42:07;;;;;;;;;36.33;30.00;;;;;12.82;75.42;101434.59;5115370;27;45497;-68
2023/04/29 07:44:33;;;;;;;;;31.00;30.33;;;;;12.62;75.10;101391.06;5096204;27;45456;-69
2023/04/29 07:46:58;;;;;;;;;25.67;25.67;;;;;12.87;75.43;101443.84;5093944;27;45505;-69
2023/04/29 07:49:24;;;;;;;;;31.00;30.00;;;;;12.74;75.50;101416.59;5101747;27;45568;-67
2023/04/29 07:51:50;;;;;;;;;36.67;32.00;;;;;13.04;75.43;101461.81;5098398;27;45649;-69
2023/04/29 07:54:15;;;;;;;;;37.00;33.00;;;;;12.80;75.67;101438.22;5099855;27;45536;-72
2023/04/29 07:56:41;;;;;;;;;38.33;33.00;;;;;13.09;75.47;101480.06;5089725;27;45419;-69
2023/04/29 07:59:06;;;;;;;;;36.67;33.00;;;;;13.17;75.28;101482.84;5085644;27;48606;-69
2023/04/29 08:01:32;;;;;;;;;38.33;30.67;;;;;13.24;75.24;101478.69;5091867;27;45634;-70
2023/04/29 08:03:57;;;;;;;;;36.33;30.00;;;;;13.10;74.31;101466.56;5110323;27;45374;-69
2023/04/29 08:06:23;;;;;;;;;37.67;31.33;;;;;12.41;74.22;101373.41;5083261;27;45899;-73
2023/04/29 08:08:48;;;;;;;;;37.33;30.67;;;;;13.07;75.27;101487.38;5090980;27;45241;-71
2023/04/29 08:11:17;;;;;;;;;34.33;30.00;;;;;12.69;75.31;101427.72;5111305;27;45444;-69
2023/04/29 08:13:43;;;;;;;;;34.00;30.33;;;;;13.01;75.99;101488.81;5097736;27;45378;-69
2023/04/29 08:16:09;;;;;;;;;40.00;31.67;;;;;12.75;75.56;101420.94;5111901;27;45551;-70
2023/04/29 08:18:35;;;;;;;;;37.67;32.33;;;;;13.20;74.40;101471.91;5087978;27;48681;-72
2023/04/29 08:21:01;;;;;;;;;39.33;33.67;;;;;13.24;74.61;101483.19;5111732;27;45544;-71
2023/04/29 08:23:27;;;;;;;;;29.67;29.67;;;;;13.04;74.21;101453.81;5101583;27;45325;-69
2023/04/29 08:25:54;;;;;;;;;41.00;34.67;;;;;13.19;73.99;101483.59;5082014;27;45355;-70
2023/04/29 08:28:19;;;;;;;;;35.33;32.00;;;;;13.11;73.86;101456.75;5111499;27;45797;-69
2023/04/29 08:30:44;;;;;;;;;37.33;31.67;;;;;13.41;72.94;101471.72;5106216;27;45422;-72
2023/04/29 08:33:11;;;;;;;;;33.33;31.67;;;;;13.42;72.69;101465.44;5111938;27;45460;-71
2023/04/29 08:35:37;;;;;;;;;40.00;34.00;;;;;13.46;71.76;101441.94;5090383;27;45602;-69
2023/04/29 08:38:06;;;;;;;;;40.00;32.33;;;;;13.84;71.38;101487.22;5079031;27;46952;-70
2023/04/29 08:40:35;;;;;;;;;38.33;33.33;;;;;13.20;71.42;101367.78;5087602;27;45281;-68
2023/04/29 08:43:03;;;;;;;;;36.33;33.33;;;;;13.37;71.18;101385.72;5105753;27;45292;-69
2023/04/29 08:45:29;;;;;;;;;41.33;36.33;;;;;13.33;69.88;101370.13;5087746;27;45611;-71
2023/04/29 08:47:55;;;;;;;;;36.00;32.67;;;;;13.99;70.23;101479.53;5114197;27;46387;-70
2023/04/29 08:50:22;;;;;;;;;39.33;33.00;;;;;14.27;69.58;101499.94;5096378;27;45340;-70
2023/04/29 08:52:49;;;;;;;;;42.67;36.33;;;;;13.99;69.31;101442.94;5097632;27;45221;-70
2023/04/29 08:55:14;;;;;;;;;39.33;34.67;;;;;14.47;69.01;101494.50;5111551;27;45227;-70
2023/04/29 08:57:42;;;;;;;;;42.00;36.00;;;;;13.78;67.93;101385.38;5100967;27;45883;-68
2023/04/29 09:00:09;;;;;;;;;39.00;33.67;;;;;14.55;67.88;101502.63;5113179;27;45808;-70
2023/04/29 09:02:44;;;;;;;;;39.33;35.67;;;;;14.65;67.37;101492.69;5105351;27;45438;-71
2023/04/29 09:05:10;;;;;;;;;37.33;34.33;;;;;14.75;66.91;101514.88;5105786;27;45356;-71
2023/04/29 09:07:40;;;;;;;;;43.00;37.33;;;;;14.13;67.00;101411.34;5112710;27;45870;-70
2023/04/29 09:10:06;;;;;;;;;42.00;36.33;;;;;14.68;66.68;101502.25;5090788;27;46104;-70
2023/04/29 09:12:31;;;;;;;;;46.00;37.33;;;;;14.48;66.94;101469.44;5100618;27;45475;-70
2023/04/29 09:14:57;;;;;;;;;47.00;38.33;;;;;14.44;66.81;101452.84;5108907;27;45432;-71
2023/04/29 09:17:45;;;;;;;;;44.33;35.00;;;;;14.54;67.09;101490.22;5109746;27;45495;-70
2023/04/29 09:20:20;;;;;;;;;33.00;28.00;;;;;14.62;66.96;101519.78;5120585;27;45539;-71
2023/04/29 09:22:52;;;;;;;;;43.33;35.33;;;;;14.66;67.28;101518.47;5112352;27;45631;-71
2023/04/29 09:25:18;;;;;;;;;48.00;39.67;;;;;14.67;66.99;101509.44;5115945;27;45453;-70
2023/04/29 09:27:44;;;;;;;;;51.00;39.67;;;;;14.67;67.12;101514.78;5100649;27;45716;-71
2023/04/29 09:30:11;;;;;;;;;50.00;39.67;;;;;14.43;67.12;101488.63;5108745;27;45324;-69
2023/04/29 09:32:36;;;;;;;;;51.67;39.33;;;;;14.55;67.40;101530.22;5100592;27;45338;-69
2023/04/29 09:35:23;;;;;;;;;46.00;37.33;;;;;14.63;67.34;101525.97;5098472;27;45479;-71
2023/04/29 09:37:49;;;;;;;;;51.67;39.00;;;;;12.81;67.22;101196.22;5107513;27;45968;-70
2023/04/29 09:40:33;;;;;;;;;46.67;37.33;;;;;14.88;67.00;101525.22;5102193;27;45159;-68
2023/04/29 09:42:59;;;;;;;;;45.67;37.67;;;;;14.90;66.40;101513.34;5112937;27;45506;-70
2023/04/29 09:45:38;;;;;;;;;42.00;37.00;;;;;14.95;66.18;101528.09;5111639;27;45630;-71
2023/04/29 09:48:05;;;;;;;;;50.00;42.00;;;;;14.89;65.98;101524.22;5104129;27;47528;-70
2023/04/29 09:50:37;;;;;;;;;49.00;40.00;;;;;14.93;66.09;101516.72;5100676;27;46856;-69
2023/04/29 09:53:05;;;;;;;;;44.00;36.67;;;;;15.16;65.51;101518.75;5106506;27;45408;-71
2023/04/29 09:55:30;;;;;;;;;51.33;41.67;;;;;15.16;64.77;101508.03;5104723;27;45410;-69
2023/04/29 09:57:56;;;;;;;;;54.00;39.67;;;;;14.97;64.49;101469.88;5112464;27;45613;-70
2023/04/29 10:00:21;;;;;;;;;48.33;36.67;;;;;15.14;63.78;101510.03;5101378;27;45499;-70
2023/04/29 10:02:48;;;;;;;;;47.33;36.00;;;;;15.21;63.79;101527.16;5118563;27;45930;-69
2023/04/29 10:05:15;;;;;;;;;50.67;40.33;;;;;15.32;64.04;101527.91;5094530;27;45456;-68
2023/04/29 10:07:41;;;;;;;;;52.00;40.00;;;;;15.29;63.10;101523.72;5116605;27;45421;-69
2023/04/29 10:10:09;;;;;;;;;58.00;46.33;;;;;15.38;63.24;101521.94;5099541;27;46019;-70
2023/04/29 10:12:36;;;;;;;;;52.00;43.33;;;;;15.53;63.07;101531.94;5099645;27;45394;-71
2023/04/29 10:15:17;;;;;;;;;53.67;42.67;;;;;15.68;62.42;101523.34;5103196;27;45528;-70
2023/04/29 10:17:48;;;;;;;;;47.33;40.00;;;;;15.66;61.65;101509.28;5102187;27;45755;-70
2023/04/29 10:20:20;;;;;;;;;50.67;41.67;;;;;15.87;61.23;101527.66;5113867;27;45229;-68
2023/04/29 10:22:48;;;;;;;;;53.67;43.00;;;;;15.28;60.72;101425.59;5102852;27;45427;-70
2023/04/29 10:25:18;;;;;;;;;51.67;40.33;;;;;15.76;60.27;101493.91;5101191;27;45404;-71
2023/04/29 10:27:44;;;;;;;;;48.33;37.33;;;;;15.88;60.37;101522.13;5085303;27;47085;-70
2023/04/29 10:30:14;;;;;;;;;46.00;37.00;;;;;15.82;60.14;101514.72;5110888;27;45547;-71
2023/04/29 10:32:42;;;;;;;;;37.67;35.33;;;;;15.08;60.08;101391.97;5098289;27;45331;-71
2023/04/29 10:35:10;;;;;;;;;42.67;36.67;;;;;15.56;60.45;101477.16;5100585;27;45376;-69
2023/04/29 10:37:36;;;;;;;;;42.67;36.00;;;;;15.74;59.26;101498.59;5100406;27;45880;-69
2023/04/29 10:40:17;;;;;;;;;38.00;34.33;;;;;15.88;59.89;101526.66;5099770;27;45223;-71
2023/04/29 10:42:48;;;;;;;;;47.00;38.00;;;;;15.56;59.93;101484.38;5089649;27;45351;-69
2023/04/29 10:45:28;;;;;;;;;49.00;36.67;;;;;15.72;59.91;101530.06;5107745;27;45461;-71
2023/04/29 10:50:29;;;;;;;;;41.67;35.00;;;;;15.85;59.39;101527.81;5109939;27;45497;-72
2023/04/29 10:52:55;;;;;;;;;38.00;32.33;;;;;15.75;59.26;101502.94;5108753;27;45343;-70
2023/04/29 10:55:22;;;;;;;;;41.00;35.00;;;;;15.86;58.74;101509.88;5120931;27;45560;-69
2023/04/29 10:57:48;;;;;;;;;35.00;33.67;;;;;15.97;58.54;101501.53;5090134;27;48309;-70
2023/04/29 11:00:33;;;;;;;;;47.33;36.33;;;;;15.78;57.53;101455.19;5089246;27;45788;-70
2023/04/29 11:03:00;;;;;;;;;38.33;33.33;;;;;15.80;57.48;101500.63;5099149;27;45335;-69
2023/04/29 11:05:36;;;;;;;;;44.67;38.33;;;;;15.96;57.87;101495.34;5088959;27;45465;-69
2023/04/29 11:08:12;;;;;;;;;37.00;32.67;;;;;16.22;57.72;101521.25;5109511;27;45671;-71
2023/04/29 11:10:42;;;;;;;;;44.67;37.00;;;;;16.34;57.33;101541.44;5100350;27;45652;-71
2023/04/29 11:13:28;;;;;;;;;24.67;20.00;;;;;16.30;56.37;101540.09;5099077;27;45247;-73
2023/04/29 11:16:06;;;;;;;;;42.33;35.00;;;;;16.20;56.33;101505.31;5088782;27;45672;-70